Time;durP1;ratioP1;P1;durP2;ratioP2;P2;SDS_P1;SDS_P2;PMS_P1;PMS_P2;Temp;Humidity;BMP_temperature;BMP_pressure;BME280_temperature;BME280_humidity;BME280_pressure;Samples;Min_cycle;Max_cycle;Signal;HPM_P1;HPM_P2
2022/02/08 00:01:14;;;;;;;89.80;19.52;;;6.90;85.60;;;;;;6235399;23;20081;-61
2022/02/08 00:03:39;;;;;;;98.55;18.88;;;6.90;85.60;;;;;;6235621;23;20004;-61
2022/02/08 00:08:39;;;;;;;98.80;19.20;;;6.80;85.90;;;;;;6237746;23;20036;-59
2022/02/08 00:11:05;;;;;;;86.95;20.35;;;6.80;86.00;;;;;;6237648;23;20007;-61
2022/02/08 00:13:30;;;;;;;83.47;20.52;;;6.80;86.10;;;;;;6185017;23;20042;-62
2022/02/08 00:15:56;;;;;;;112.28;20.40;;;6.80;86.20;;;;;;6206953;23;20692;-59
2022/02/08 00:18:21;;;;;;;95.72;19.17;;;6.80;86.30;;;;;;6233133;23;20047;-59
2022/02/08 00:20:47;;;;;;;78.90;19.48;;;6.70;86.20;;;;;;6235927;23;20398;-61
2022/02/08 00:23:12;;;;;;;81.93;17.88;;;6.70;86.20;;;;;;6208380;23;20041;-61
2022/02/08 00:25:38;;;;;;;88.25;19.45;;;6.70;86.20;;;;;;6235002;23;20004;-59
2022/02/08 00:28:04;;;;;;;81.72;18.70;;;6.70;86.20;;;;;;6206266;23;20004;-61
2022/02/08 00:30:29;;;;;;;77.00;17.83;;;6.70;86.20;;;;;;6233407;23;20008;-60
2022/02/08 00:32:55;;;;;;;85.28;19.60;;;6.60;86.10;;;;;;6207554;23;20007;-61
2022/02/08 00:35:20;;;;;;;90.35;18.58;;;6.60;86.20;;;;;;6235939;23;20083;-61
2022/02/08 00:37:46;;;;;;;75.50;18.52;;;6.60;86.10;;;;;;6235043;23;20079;-61
2022/02/08 00:40:11;;;;;;;91.53;19.27;;;6.60;86.10;;;;;;6207112;23;20004;-61
2022/02/08 00:42:37;;;;;;;73.47;17.02;;;6.60;86.10;;;;;;6234077;23;20008;-62
2022/02/08 00:45:31;;;;;;;81.53;18.27;;;6.50;86.00;;;;;;6206222;23;20000;-61
2022/02/08 00:48:11;;;;;;;67.93;16.95;;;6.60;86.20;;;;;;6236191;23;20310;-62
2022/02/08 00:50:39;;;;;;;67.13;16.92;;;6.50;86.20;;;;;;6211078;23;20003;-60
2022/02/08 00:53:04;;;;;;;68.20;16.55;;;6.50;86.20;;;;;;6207538;23;20087;-59
2022/02/08 00:55:30;;;;;;;73.07;16.15;;;6.50;86.10;;;;;;6232769;23;20035;-60
2022/02/08 00:57:55;;;;;;;62.80;15.80;;;6.50;86.10;;;;;;6207030;23;20039;-59
2022/02/08 01:00:22;;;;;;;60.70;14.70;;;6.50;86.00;;;;;;6234915;23;20032;-62
2022/02/08 01:02:47;;;;;;;60.05;15.82;;;6.50;86.10;;;;;;6208881;23;20366;-61
2022/02/08 01:05:15;;;;;;;55.15;14.20;;;6.40;86.00;;;;;;6207162;23;20004;-61
2022/02/08 01:07:41;;;;;;;66.07;14.57;;;6.40;86.10;;;;;;6233541;23;20351;-61
2022/02/08 01:10:09;;;;;;;59.72;14.63;;;6.40;86.10;;;;;;6206335;23;20550;-61
2022/02/08 01:12:35;;;;;;;73.20;15.20;;;6.40;86.10;;;;;;6235344;23;20047;-62
2022/02/08 01:15:01;;;;;;;62.47;14.30;;;6.40;86.00;;;;;;6235054;23;20067;-64
2022/02/08 01:17:27;;;;;;;66.40;14.00;;;6.40;86.10;;;;;;6208265;23;20023;-62
2022/02/08 01:20:00;;;;;;;51.83;14.32;;;6.30;86.00;;;;;;6207782;23;20058;-62
2022/02/08 01:22:26;;;;;;;65.65;16.38;;;6.30;86.10;;;;;;6232985;23;20011;-62
2022/02/08 01:24:51;;;;;;;55.17;15.85;;;6.30;86.20;;;;;;6206611;23;20012;-63
2022/02/08 01:27:21;;;;;;;61.55;15.93;;;6.30;86.10;;;;;;6208452;23;20010;-63
2022/02/08 01:40:16;;;;;;;59.22;13.85;;;6.20;86.10;;;;;;6235489;23;20008;-59
2022/02/08 01:42:55;;;;;;;48.05;13.70;;;6.20;86.10;;;;;;6235432;23;20026;-61
2022/02/08 01:48:09;;;;;;;52.25;15.20;;;6.20;86.00;;;;;;6210273;23;20153;-61
2022/02/08 01:50:35;;;;;;;48.58;13.73;;;6.20;86.10;;;;;;6233800;23;20444;-61
2022/02/08 01:53:01;;;;;;;40.00;14.23;;;6.10;86.10;;;;;;6235684;23;20011;-62
2022/02/08 01:55:27;;;;;;;51.33;13.27;;;6.10;86.10;;;;;;6236403;23;20296;-61
2022/02/08 01:57:52;;;;;;;48.70;14.52;;;6.10;86.20;;;;;;6234064;23;20131;-61
2022/02/08 02:00:18;;;;;;;44.72;14.18;;;6.10;86.10;;;;;;6206296;23;20004;-60
2022/02/08 02:02:44;;;;;;;44.75;14.95;;;6.10;86.10;;;;;;6234143;23;20338;-60
2022/02/08 02:05:09;;;;;;;49.85;13.27;;;6.10;86.10;;;;;;6237103;23;20209;-61
2022/02/08 02:07:35;;;;;;;39.75;14.02;;;6.10;85.90;;;;;;6237506;23;20019;-61
2022/02/08 02:10:01;;;;;;;41.55;13.45;;;6.10;85.90;;;;;;6159716;23;20059;-60
2022/02/08 02:12:27;;;;;;;41.92;13.88;;;6.10;86.00;;;;;;6210625;23;20019;-59
2022/02/08 02:14:54;;;;;;;36.28;13.15;;;6.10;86.10;;;;;;6207526;23;20079;-61
2022/02/08 02:17:20;;;;;;;42.20;14.27;;;6.10;86.10;;;;;;6236515;23;20103;-60
2022/02/08 02:19:46;;;;;;;39.08;14.80;;;6.00;86.10;;;;;;6184935;23;20032;-60
2022/02/08 02:22:11;;;;;;;32.03;13.60;;;6.00;86.10;;;;;;6209548;23;20000;-60
2022/02/08 02:24:37;;;;;;;38.25;14.90;;;6.00;86.10;;;;;;6182987;23;20015;-60
2022/02/08 02:27:04;;;;;;;36.47;15.55;;;6.00;86.10;;;;;;6208606;23;20287;-61
2022/02/08 02:29:30;;;;;;;46.05;13.98;;;6.00;86.10;;;;;;6208666;23;20012;-61
2022/02/08 02:31:56;;;;;;;37.33;14.80;;;6.00;86.10;;;;;;6210122;23;20460;-59
2022/02/08 02:34:23;;;;;;;32.42;13.13;;;5.90;86.10;;;;;;6186067;23;20432;-60
2022/02/08 02:36:48;;;;;;;38.03;13.95;;;6.00;86.10;;;;;;6235479;23;20053;-60
2022/02/08 02:39:14;;;;;;;34.65;12.23;;;5.90;86.10;;;;;;6207977;23;20004;-61
2022/02/08 02:41:41;;;;;;;23.25;11.45;;;5.90;86.10;;;;;;6235565;23;20425;-61
2022/02/08 02:44:08;;;;;;;35.55;12.95;;;5.90;86.10;;;;;;6209638;23;20137;-61
2022/02/08 02:46:34;;;;;;;38.40;12.52;;;5.90;86.10;;;;;;6185487;23;19996;-61
2022/02/08 02:49:00;;;;;;;33.67;12.05;;;5.90;86.10;;;;;;6235653;23;20011;-61
2022/02/08 02:51:25;;;;;;;30.95;11.45;;;5.90;86.10;;;;;;6208205;23;20011;-61
2022/02/08 02:53:52;;;;;;;30.63;11.00;;;5.90;86.10;;;;;;6235287;23;20009;-60
2022/02/08 02:56:17;;;;;;;27.88;11.30;;;5.90;86.10;;;;;;6207838;23;20095;-61
2022/02/08 02:58:43;;;;;;;27.90;11.13;;;5.90;86.10;;;;;;6209936;23;20054;-60
2022/02/08 03:17:39;;;;;;;32.83;10.60;;;5.80;86.20;;;;;;6234457;23;20020;-60
2022/02/08 03:20:05;;;;;;;29.38;11.05;;;5.80;86.20;;;;;;6192761;23;20291;-61
2022/02/08 03:22:31;;;;;;;28.30;11.45;;;5.80;86.30;;;;;;6208292;23;20024;-61
2022/02/08 03:24:56;;;;;;;25.25;10.50;;;5.80;86.30;;;;;;6209445;23;20302;-61
2022/02/08 03:27:22;;;;;;;29.45;10.00;;;5.80;86.30;;;;;;6236300;23;20397;-62
2022/02/08 03:29:47;;;;;;;27.92;10.10;;;5.70;86.20;;;;;;6207579;23;20445;-62
2022/02/08 03:32:14;;;;;;;23.83;10.30;;;5.80;86.20;;;;;;6181906;23;20383;-61
2022/02/08 03:34:40;;;;;;;24.35;9.63;;;5.80;86.20;;;;;;6208499;23;20023;-61
2022/02/08 03:37:05;;;;;;;22.75;9.43;;;5.90;86.30;;;;;;6236660;23;20346;-62
2022/02/08 03:39:36;;;;;;;21.35;9.20;;;5.90;86.20;;;;;;6210036;23;20562;-61
2022/02/08 03:42:23;;;;;;;22.75;9.18;;;5.80;86.10;;;;;;6235198;23;19996;-61
2022/02/08 03:44:49;;;;;;;27.83;9.75;;;5.80;86.10;;;;;;6208631;23;20054;-60
2022/02/08 03:47:16;;;;;;;23.40;9.93;;;5.90;86.20;;;;;;6207144;23;20070;-65
2022/02/08 03:49:42;;;;;;;31.17;11.20;;;5.90;86.30;;;;;;6209743;23;20681;-61
2022/02/08 03:52:08;;;;;;;29.30;11.32;;;5.80;86.20;;;;;;6236852;23;20011;-59
2022/02/08 03:54:33;;;;;;;23.30;9.85;;;5.90;86.30;;;;;;6235562;23;20086;-60
2022/02/08 03:57:00;;;;;;;27.52;10.20;;;5.80;86.30;;;;;;6207107;23;20284;-60
2022/02/08 03:59:26;;;;;;;29.40;10.32;;;5.80;86.90;;;;;;6206943;23;20043;-60
2022/02/08 04:07:08;;;;;;;18.17;9.02;;;5.80;86.00;;;;;;6208703;23;20019;-61
2022/02/08 04:09:33;;;;;;;21.73;8.13;;;5.80;85.90;;;;;;6233959;23;20412;-61
2022/02/08 04:12:04;;;;;;;21.80;8.77;;;5.80;85.80;;;;;;6207337;23;20028;-60
2022/02/08 04:14:44;;;;;;;18.80;7.25;;;5.80;85.70;;;;;;6234704;23;20007;-60
2022/02/08 04:36:29;;;;;;;15.45;7.10;;;5.70;86.60;;;;;;6210972;23;20467;-61
2022/02/08 04:39:16;;;;;;;21.73;7.72;;;5.70;85.90;;;;;;6233615;23;20008;-61
2022/02/08 04:41:58;;;;;;;14.23;6.68;;;5.70;85.80;;;;;;6208058;23;20012;-61
2022/02/08 04:44:44;;;;;;;16.83;6.60;;;5.70;85.80;;;;;;6209174;23;20338;-61
2022/02/08 04:49:35;;;;;;;;;;;5.70;85.60;;;;;;6207681;23;19903;-61
2022/02/08 04:52:04;;;;;;;14.83;5.63;;;5.70;85.60;;;;;;6233554;23;19900;-61
2022/02/08 04:54:44;;;;;;;11.65;5.72;;;5.70;85.60;;;;;;6209411;23;20004;-60
2022/02/08 05:00:05;;;;;;;13.02;6.00;;;5.70;85.60;;;;;;6234869;23;20426;-61
2022/02/08 05:35:25;;;;;;;11.50;5.60;;;5.60;86.20;;;;;;6235129;23;20026;-60
2022/02/08 05:43:37;;;;;;;12.82;5.43;;;5.60;86.40;;;;;;6211152;23;20073;-61
2022/02/08 05:48:34;;;;;;;17.13;5.63;;;5.60;87.00;;;;;;6210157;23;20012;-61
2022/02/08 05:51:06;;;;;;;14.00;5.97;;;5.60;86.40;;;;;;6210680;23;20607;-60
2022/02/08 05:53:42;;;;;;;17.17;5.40;;;5.60;86.40;;;;;;6208382;23;20560;-61
2022/02/08 05:56:08;;;;;;;;;;;5.60;86.30;;;;;;6235293;23;20398;-61
2022/02/08 05:58:34;;;;;;;15.50;5.07;;;5.60;86.40;;;;;;6206689;23;19900;-61
2022/02/08 06:01:00;;;;;;;16.52;6.32;;;5.60;86.40;;;;;;6233417;23;20004;-59
2022/02/08 06:03:25;;;;;;;14.50;5.55;;;5.60;86.50;;;;;;6207291;23;20007;-61
2022/02/08 06:05:51;;;;;;;14.95;5.45;;;5.60;86.90;;;;;;6235179;23;20079;-61
2022/02/08 06:08:16;;;;;;;18.63;6.00;;;5.60;87.00;;;;;;6180997;23;20008;-60
2022/02/08 06:10:49;;;;;;;13.98;5.28;;;5.60;87.20;;;;;;6233293;23;20015;-60
2022/02/08 06:13:16;;;;;;;15.43;5.35;;;5.60;87.10;;;;;;6236564;23;20004;-61
2022/02/08 06:15:42;;;;;;;14.60;6.55;;;5.60;87.20;;;;;;6210471;23;20007;-61
2022/02/08 06:18:08;;;;;;;17.67;8.40;;;5.60;87.20;;;;;;6209037;23;20019;-60
2022/02/08 06:20:33;;;;;;;16.58;7.43;;;5.60;87.10;;;;;;6182375;23;20342;-61
2022/02/08 06:23:00;;;;;;;12.15;7.13;;;5.60;87.40;;;;;;6234674;23;20004;-61
2022/02/08 06:25:26;;;;;;;16.33;7.18;;;5.60;87.30;;;;;;6208181;23;20385;-60
2022/02/08 06:27:51;;;;;;;11.80;6.38;;;5.60;87.30;;;;;;6183205;23;20005;-61
2022/02/08 06:30:18;;;;;;;21.15;6.45;;;5.60;87.30;;;;;;6183046;23;20008;-59
2022/02/08 06:32:44;;;;;;;18.52;6.75;;;5.60;87.40;;;;;;6206871;23;20276;-60
2022/02/08 06:35:18;;;;;;;15.18;6.45;;;5.60;87.50;;;;;;6232882;23;20011;-61
2022/02/08 06:37:44;;;;;;;13.43;6.13;;;5.60;87.50;;;;;;6183817;23;20004;-65
2022/02/08 06:40:10;;;;;;;16.05;6.38;;;5.60;87.60;;;;;;6209019;23;20087;-67
2022/02/08 06:42:36;;;;;;;12.15;6.43;;;5.50;87.70;;;;;;6209202;23;20082;-59
2022/02/08 06:45:03;;;;;;;11.85;6.05;;;5.60;87.90;;;;;;6233563;23;20004;-62
2022/02/08 06:47:31;;;;;;;11.38;6.20;;;5.60;87.90;;;;;;6182250;23;20004;-61
2022/02/08 06:49:56;;;;;;;13.85;6.38;;;5.60;88.00;;;;;;6234033;23;20501;-62
2022/02/08 06:52:22;;;;;;;11.38;5.35;;;5.60;87.80;;;;;;6234929;23;20014;-59
2022/02/08 06:54:48;;;;;;;11.68;7.10;;;5.60;87.80;;;;;;6235207;23;20283;-59
2022/02/08 06:57:14;;;;;;;11.50;6.13;;;5.60;88.00;;;;;;6184519;23;20016;-64
2022/02/08 06:59:48;;;;;;;15.85;5.97;;;5.60;87.90;;;;;;6209047;23;20071;-62
2022/02/08 07:02:13;;;;;;;10.60;5.40;;;5.50;87.80;;;;;;6235641;23;20069;-60
2022/02/08 07:04:39;;;;;;;11.98;6.13;;;5.60;87.80;;;;;;6208252;23;20005;-60
2022/02/08 07:07:04;;;;;;;13.77;6.40;;;5.60;87.70;;;;;;6237175;23;20075;-60
2022/02/08 07:09:30;;;;;;;8.30;5.40;;;5.50;87.70;;;;;;6235290;23;20071;-61
2022/02/08 07:11:57;;;;;;;12.32;5.78;;;5.50;87.70;;;;;;6182514;23;20058;-61
2022/02/08 07:14:28;;;;;;;12.23;6.53;;;5.60;87.60;;;;;;6205763;23;20020;-60
2022/02/08 07:16:54;;;;;;;13.35;6.82;;;5.60;87.40;;;;;;6207903;23;20004;-62
2022/02/08 07:19:19;;;;;;;13.20;6.60;;;5.60;87.30;;;;;;6234817;23;20000;-60
2022/02/08 07:21:45;;;;;;;20.67;6.63;;;5.50;87.20;;;;;;6207841;23;20004;-62
2022/02/08 07:24:11;;;;;;;22.73;6.43;;;5.50;87.30;;;;;;6207101;23;20370;-60
2022/02/08 07:26:37;;;;;;;28.42;7.95;;;5.50;87.30;;;;;;6232450;23;20094;-61
2022/02/08 07:29:03;;;;;;;21.35;6.72;;;5.50;87.20;;;;;;6181468;23;20306;-63
2022/02/08 07:31:36;;;;;;;19.20;6.55;;;5.50;87.20;;;;;;6181165;23;20398;-63
2022/02/08 07:34:20;;;;;;;15.52;6.40;;;5.50;87.10;;;;;;6231766;23;20083;-63
2022/02/08 07:37:10;;;;;;;23.70;6.60;;;5.50;87.10;;;;;;6182284;23;20468;-63
2022/02/08 07:39:46;;;;;;;18.73;5.95;;;5.50;86.90;;;;;;6163108;23;20008;-61
2022/02/08 07:42:13;;;;;;;14.80;7.25;;;5.60;87.00;;;;;;6156322;23;20000;-62
2022/02/08 07:44:43;;;;;;;19.05;8.38;;;5.60;86.80;;;;;;6180623;23;20008;-61
2022/02/08 07:47:16;;;;;;;16.70;8.10;;;5.50;86.80;;;;;;6179145;23;20011;-61
2022/02/08 07:49:44;;;;;;;15.13;7.45;;;5.50;86.80;;;;;;6182006;23;20303;-61
2022/02/08 07:52:09;;;;;;;17.30;7.47;;;5.50;86.80;;;;;;6178275;23;20011;-63
2022/02/08 07:54:35;;;;;;;16.13;7.40;;;5.50;86.80;;;;;;6205706;23;20215;-61
2022/02/08 07:57:00;;;;;;;18.52;7.10;;;5.50;86.70;;;;;;6234200;23;20047;-63
2022/02/08 07:59:26;;;;;;;18.38;6.60;;;5.50;86.70;;;;;;6235628;23;20314;-65
2022/02/08 08:01:52;;;;;;;21.58;7.30;;;5.60;86.80;;;;;;6206803;23;20460;-64
2022/02/08 08:04:17;;;;;;;13.82;6.53;;;5.50;86.80;;;;;;6206527;23;20326;-63
2022/02/08 08:06:43;;;;;;;17.33;7.15;;;5.40;86.80;;;;;;6205776;23;20469;-62
2022/02/08 08:09:08;;;;;;;10.73;6.30;;;5.60;86.70;;;;;;6233310;23;20446;-64
2022/02/08 08:11:39;;;;;;;14.88;6.53;;;5.60;86.90;;;;;;6182668;23;20012;-61
2022/02/08 08:14:06;;;;;;;16.23;6.85;;;5.60;86.50;;;;;;6206872;23;20087;-61
2022/02/08 08:19:20;;;;;;;17.80;7.15;;;5.60;86.50;;;;;;6206687;23;20095;-62
2022/02/08 08:21:46;;;;;;;22.58;7.07;;;5.60;86.40;;;;;;6209000;23;20012;-62
2022/02/08 08:24:13;;;;;;;24.40;6.38;;;5.60;86.50;;;;;;6206020;23;20016;-59
2022/02/08 08:26:39;;;;;;;16.65;6.40;;;5.60;86.40;;;;;;6208734;23;20004;-61
2022/02/08 08:29:04;;;;;;;24.92;6.88;;;5.60;86.40;;;;;;6182443;23;20054;-60
2022/02/08 08:31:30;;;;;;;27.00;7.00;;;5.60;86.30;;;;;;6179965;23;20568;-61
2022/02/08 08:33:55;;;;;;;20.75;6.55;;;5.60;86.30;;;;;;6232684;23;20418;-61
2022/02/08 08:36:22;;;;;;;27.70;5.93;;;5.60;86.40;;;;;;6207143;23;20012;-59
2022/02/08 08:38:49;;;;;;;20.30;5.90;;;5.60;86.30;;;;;;6235388;23;20028;-60
2022/02/08 08:41:25;;;;;;;18.90;6.97;;;5.60;86.30;;;;;;6183260;23;20083;-60
2022/02/08 08:51:42;;;;;;;32.50;6.87;;;5.60;86.30;;;;;;6209138;23;20305;-59
2022/02/08 08:54:08;;;;;;;22.10;6.30;;;5.60;86.30;;;;;;6234600;23;20260;-61
2022/02/08 08:56:38;;;;;;;36.20;6.60;;;5.60;86.20;;;;;;6180702;23;20019;-61
2022/02/08 08:59:04;;;;;;;17.00;6.20;;;5.60;86.20;;;;;;6180552;23;20479;-60
2022/02/08 09:01:30;;;;;;;18.80;5.93;;;5.60;86.10;;;;;;6232633;23;20008;-60
2022/02/08 09:03:55;;;;;;;16.73;5.75;;;5.60;86.10;;;;;;6230797;23;20337;-60
2022/02/08 09:06:21;;;;;;;20.42;5.60;;;5.60;86.00;;;;;;6207898;23;20007;-61
2022/02/08 09:08:47;;;;;;;28.08;5.90;;;5.60;86.00;;;;;;6232588;23;20000;-60
2022/02/08 09:11:38;;;;;;;42.33;7.82;;;5.70;86.00;;;;;;6206283;23;20099;-61
2022/02/08 09:14:10;;;;;;;28.70;7.20;;;5.60;85.90;;;;;;6232428;23;20004;-59
2022/02/08 09:16:52;;;;;;;52.63;9.52;;;5.60;85.90;;;;;;6232507;23;20050;-59
2022/02/08 09:30:08;;;;;;;31.45;6.43;;;5.70;85.90;;;;;;6110793;23;20013;-62
2022/02/08 09:35:07;;;;;;;45.58;7.28;;;5.70;85.80;;;;;;6207284;23;20015;-60
2022/02/08 09:37:33;;;;;;;42.60;8.60;;;5.70;85.80;;;;;;6232976;23;20031;-60
2022/02/08 09:39:59;;;;;;;52.25;7.05;;;5.70;85.90;;;;;;6232698;23;20097;-60
2022/02/08 09:42:25;;;;;;;43.25;7.43;;;5.70;85.80;;;;;;6206934;23;20425;-60
2022/02/08 09:44:50;;;;;;;102.28;15.95;;;5.70;85.80;;;;;;6208550;23;20738;-60
2022/02/08 09:47:19;;;;;;;97.65;13.75;;;5.70;85.70;;;;;;6204253;23;20097;-60
2022/02/08 09:49:53;;;;;;;85.70;11.65;;;5.70;85.70;;;;;;6231821;23;20004;-60
2022/02/08 09:52:20;;;;;;;55.38;9.13;;;5.70;85.70;;;;;;6207634;23;20016;-60
2022/02/08 09:54:46;;;;;;;89.20;10.90;;;5.80;85.80;;;;;;6183280;23;20008;-61
2022/02/08 09:57:12;;;;;;;44.28;8.10;;;5.80;85.70;;;;;;6234907;23;20016;-60
2022/02/08 09:59:38;;;;;;;48.38;8.65;;;5.80;85.60;;;;;;6232030;23;20000;-61
2022/02/08 10:02:04;;;;;;;43.72;8.02;;;5.80;85.60;;;;;;6232738;23;20445;-59
2022/02/08 10:04:29;;;;;;;43.60;8.05;;;5.80;85.50;;;;;;6206757;23;20055;-60
2022/02/08 10:06:55;;;;;;;55.28;7.72;;;5.80;85.40;;;;;;6205879;23;20079;-60
2022/02/08 10:09:29;;;;;;;44.58;7.40;;;5.80;85.40;;;;;;6209078;23;20175;-61
2022/02/08 10:11:57;;;;;;;45.70;7.07;;;5.80;85.30;;;;;;6206282;23;20038;-61
2022/02/08 10:18:59;;;;;;;43.55;8.57;;;5.80;85.20;;;;;;6207974;23;20012;-60
2022/02/08 10:22:32;;;;;;;43.40;8.23;;;5.90;84.80;;;;;;6182157;23;20004;-59
2022/02/08 10:25:06;;;;;;;41.78;6.60;;;5.90;84.80;;;;;;6210136;23;20602;-62
2022/02/08 10:27:38;;;;;;;33.20;6.97;;;6.00;84.80;;;;;;6183868;23;20019;-60
2022/02/08 10:38:35;;;;;;;39.67;5.95;;;5.90;84.80;;;;;;6192444;23;20610;-63
2022/02/08 10:41:12;;;;;;;42.05;6.35;;;6.00;84.70;;;;;;6209281;23;20012;-64
2022/02/08 10:43:38;;;;;;;38.50;6.35;;;6.00;84.60;;;;;;6184739;23;20474;-62
2022/02/08 10:46:04;;;;;;;35.95;6.22;;;6.00;84.60;;;;;;6232158;23;20377;-65
2022/02/08 10:48:30;;;;;;;31.02;5.70;;;6.00;84.60;;;;;;6181021;23;20058;-63
2022/02/08 10:50:58;;;;;;;49.65;7.15;;;6.00;84.50;;;;;;6207031;23;20088;-62
2022/02/08 10:53:27;;;;;;;36.97;6.15;;;6.00;84.50;;;;;;6203533;23;20015;-64
2022/02/08 10:56:08;;;;;;;35.38;6.82;;;6.10;84.50;;;;;;6203590;23;20024;-64
2022/02/08 10:58:42;;;;;;;45.33;6.60;;;6.10;84.50;;;;;;6161745;23;20442;-62
2022/02/08 11:03:47;;;;;;;34.05;6.00;;;6.10;84.30;;;;;;6207337;23;20416;-59
2022/02/08 11:06:19;;;;;;;40.22;6.35;;;6.10;84.30;;;;;;6209347;23;20012;-60
2022/02/08 11:09:16;;;;;;;33.78;5.75;;;6.10;84.20;;;;;;6207377;23;20007;-60
2022/02/08 11:14:43;;;;;;;44.38;6.20;;;6.10;84.10;;;;;;6210155;23;20004;-64
2022/02/08 11:20:12;;;;;;;24.25;5.63;;;6.20;84.20;;;;;;6197651;23;20018;-60
2022/02/08 11:23:09;;;;;;;38.15;6.55;;;6.20;84.30;;;;;;6186998;23;20099;-61
2022/02/08 11:25:38;;;;;;;37.85;6.10;;;6.20;84.30;;;;;;6187858;23;20022;-61
2022/02/08 11:28:43;;;;;;;20.38;5.13;;;6.20;84.20;;;;;;6184354;23;20023;-59
2022/02/08 11:31:09;;;;;;;40.17;6.60;;;6.20;83.90;;;;;;6233247;23;20018;-60
2022/02/08 11:44:31;;;;;;;33.88;5.78;;;6.40;83.30;;;;;;6184635;23;20031;-61
2022/02/08 11:49:48;;;;;;;27.58;6.50;;;6.30;83.50;;;;;;6209890;23;20049;-59
2022/02/08 11:52:48;;;;;;;41.75;6.30;;;6.30;83.30;;;;;;6211315;23;20061;-61
2022/02/08 12:00:21;;;;;;;51.13;8.25;;;6.40;83.10;;;;;;6207512;23;20015;-60
2022/02/08 12:03:00;;;;;;;45.03;5.72;;;6.40;83.00;;;;;;6207309;23;20079;-61
2022/02/08 12:05:42;;;;;;;38.05;6.55;;;6.40;83.10;;;;;;6210632;23;20052;-60
2022/02/08 12:08:12;;;;;;;36.70;6.18;;;6.50;82.90;;;;;;6165122;23;20336;-60
2022/02/08 12:10:44;;;;;;;62.67;8.68;;;6.50;82.70;;;;;;6184215;23;20406;-61
2022/02/08 13:02:41;;;;;;;65.30;8.23;;;6.80;80.50;;;;;;6161183;23;20111;-61
2022/02/08 13:17:52;;;;;;;70.63;8.40;;;6.90;79.30;;;;;;6237188;23;20038;-61
2022/02/08 13:20:06;;;;;;;;;;;6.90;79.40;;;;;;6216732;23;20031;-60
2022/02/08 14:03:53;;;;;;;172.43;20.60;;;7.40;78.80;;;;;;6216341;23;20040;-59
2022/02/08 14:06:20;;;;;;;118.18;16.58;;;7.40;78.90;;;;;;6238798;23;20483;-60
2022/02/08 14:14:32;;;;;;;100.68;12.77;;;7.50;78.50;;;;;;6211898;23;20016;-59
2022/02/08 14:19:46;;;;;;;110.55;13.48;;;7.60;78.40;;;;;;6229550;23;20115;-61
2022/02/08 14:22:19;;;;;;;90.47;11.05;;;7.60;78.30;;;;;;6236625;23;20008;-59
2022/02/08 14:30:26;;;;;;;121.60;16.52;;;7.60;78.00;;;;;;6238638;23;20019;-60
2022/02/08 14:33:11;;;;;;;145.27;17.83;;;7.70;78.20;;;;;;6187276;23;20346;-60
2022/02/08 14:58:01;;;;;;;195.23;22.08;;;7.80;78.10;;;;;;6213599;23;20023;-60
2022/02/08 15:06:11;;;;;;;136.48;16.05;;;7.90;77.20;;;;;;6235272;23;20014;-62
2022/02/08 15:08:32;;;;;;;140.52;19.23;;;7.90;77.40;;;;;;6210123;23;20011;-61
2022/02/08 15:11:05;;;;;;;110.60;15.65;;;8.00;77.00;;;;;;6212351;23;20004;-61
2022/02/08 15:13:31;;;;;;;125.78;17.42;;;8.00;76.70;;;;;;6190345;23;20012;-59
2022/02/08 15:16:11;;;;;;;149.65;17.75;;;8.00;76.50;;;;;;6209765;23;20031;-60
2022/02/08 15:18:38;;;;;;;132.57;16.77;;;8.00;76.90;;;;;;6191153;23;20008;-60
2022/02/08 15:21:05;;;;;;;124.22;17.88;;;8.00;77.00;;;;;;6237282;23;20004;-58
2022/02/08 15:23:30;;;;;;;139.68;19.20;;;8.10;76.80;;;;;;6238149;23;20012;-60
2022/02/08 15:25:58;;;;;;;175.15;20.60;;;8.10;77.00;;;;;;6211642;23;20031;-61
2022/02/08 15:28:24;;;;;;;145.63;18.48;;;8.10;77.10;;;;;;6237459;23;20012;-62
2022/02/08 15:30:51;;;;;;;207.35;23.58;;;8.10;77.10;;;;;;6237104;23;20008;-63
2022/02/08 15:33:17;;;;;;;116.68;17.10;;;8.20;77.10;;;;;;6209843;23;20015;-63
2022/02/08 15:35:42;;;;;;;123.75;16.83;;;8.20;76.60;;;;;;6209894;23;20077;-61
2022/02/08 15:38:08;;;;;;;150.77;19.27;;;8.20;76.20;;;;;;6237999;23;20077;-62
2022/02/08 15:40:34;;;;;;;127.55;17.92;;;8.20;76.20;;;;;;6237725;23;20405;-63
2022/02/08 15:42:59;;;;;;;144.00;16.42;;;8.30;76.10;;;;;;6207964;23;20015;-60
2022/02/08 15:45:36;;;;;;;142.73;16.70;;;8.30;76.10;;;;;;6232983;23;20015;-61
2022/02/08 15:48:01;;;;;;;192.63;25.20;;;8.30;75.80;;;;;;6236130;23;20007;-61
2022/02/08 15:53:27;;;;;;;101.60;15.85;;;8.40;76.10;;;;;;6215959;23;20429;-62
2022/02/08 16:00:05;;;;;;;145.95;17.10;;;8.40;76.10;;;;;;6238046;23;20473;-58
2022/02/08 16:01:26;;;;;;;144.05;19.33;;;8.50;76.20;;;;;;6208727;23;20460;-60
2022/02/08 16:09:33;;;;;;;182.18;22.15;;;8.50;77.10;;;;;;6234498;23;20009;-58
2022/02/08 16:17:26;;;;;;;130.63;16.83;;;8.60;77.40;;;;;;6236083;23;20413;-60
2022/02/08 16:20:15;;;;;;;125.63;17.58;;;8.60;77.50;;;;;;6207590;23;20004;-60
2022/02/08 16:25:23;;;;;;;113.22;13.98;;;8.60;77.50;;;;;;6210104;23;20168;-61
2022/02/08 16:52:46;;;;;;;172.88;19.45;;;8.90;78.90;;;;;;6236182;23;20000;-62
2022/02/08 16:57:54;;;;;;;187.27;17.00;;;8.90;79.30;;;;;;6232685;23;20299;-62
2022/02/08 17:00:22;;;;;;;157.43;18.85;;;9.00;79.70;;;;;;6230887;23;20036;-61
2022/02/08 17:02:54;;;;;;;197.32;21.08;;;9.00;79.70;;;;;;6179883;23;20465;-60
2022/02/08 17:05:20;;;;;;;202.70;21.23;;;9.10;79.60;;;;;;6206293;23;20028;-60
2022/02/08 17:07:46;;;;;;;148.68;17.48;;;9.10;79.90;;;;;;6231684;23;20486;-61
2022/02/08 17:10:27;;;;;;;210.52;23.73;;;9.20;79.70;;;;;;6234666;23;20026;-60
2022/02/08 17:13:01;;;;;;;208.50;25.20;;;9.20;79.80;;;;;;6183071;23;20008;-60
2022/02/08 17:45:51;;;;;;;333.25;38.40;;;9.50;80.60;;;;;;6204673;23;20019;-62
2022/02/08 17:48:17;;;;;;;361.88;42.78;;;9.50;80.90;;;;;;6189851;23;20118;-63
2022/02/08 17:50:42;;;;;;;301.75;32.88;;;9.50;81.40;;;;;;6204301;23;20074;-62
2022/02/08 17:53:08;;;;;;;303.48;32.85;;;9.50;81.60;;;;;;6199463;23;20680;-62
2022/02/08 17:55:33;;;;;;;262.35;29.15;;;9.50;81.60;;;;;;6225499;23;20007;-63
2022/02/08 17:58:00;;;;;;;249.10;31.17;;;9.50;81.50;;;;;;6228950;23;20008;-62
2022/02/08 18:00:26;;;;;;;341.58;36.95;;;9.60;81.60;;;;;;6203318;23;20015;-60
2022/02/08 18:02:51;;;;;;;283.70;32.45;;;9.60;81.80;;;;;;6228470;23;20068;-58
2022/02/08 18:05:17;;;;;;;297.50;34.00;;;9.60;82.00;;;;;;6206014;23;20008;-61
2022/02/08 18:07:43;;;;;;;353.15;39.38;;;9.70;82.30;;;;;;6206367;23;20039;-57
2022/02/08 18:10:10;;;;;;;279.17;33.28;;;9.70;81.80;;;;;;6232067;23;20008;-61
2022/02/08 18:12:36;;;;;;;291.90;34.72;;;9.70;81.70;;;;;;6230965;23;20004;-61
2022/02/08 18:15:07;;;;;;;323.40;40.17;;;9.70;81.90;;;;;;6208371;23;20008;-61
2022/02/08 18:17:48;;;;;;;296.85;38.97;;;9.70;81.50;;;;;;6210037;23;20141;-60
2022/02/08 18:25:36;;;;;;;308.63;43.60;;;9.70;83.10;;;;;;6209306;23;20091;-62
2022/02/08 18:58:00;;;;;;;330.15;42.33;;;9.70;82.90;;;;;;6213179;23;20031;-60
2022/02/08 19:03:49;;;;;;;338.38;44.13;;;9.70;82.80;;;;;;6233334;23;20022;-62
2022/02/08 19:07:07;;;;;;;318.73;42.33;;;9.80;83.10;;;;;;6234040;23;20071;-61
2022/02/08 19:21:59;;;;;;;374.83;47.92;;;9.80;83.70;;;;;;6208820;23;20412;-59
2022/02/08 19:24:24;;;;;;;418.30;52.38;;;9.80;83.90;;;;;;6237609;23;20087;-63
2022/02/08 19:26:51;;;;;;;332.50;44.45;;;9.80;84.00;;;;;;6209035;23;20050;-62
2022/02/08 19:29:17;;;;;;;336.15;44.20;;;9.80;84.00;;;;;;6210072;23;20124;-58
2022/02/08 19:31:43;;;;;;;300.33;44.05;;;9.80;84.10;;;;;;6210009;23;20012;-60
2022/02/08 19:34:09;;;;;;;350.00;43.40;;;9.70;84.20;;;;;;6209238;23;20000;-59
2022/02/08 19:36:34;;;;;;;383.08;45.88;;;9.70;84.50;;;;;;6209388;23;20083;-63
2022/02/08 19:39:03;;;;;;;367.00;44.92;;;9.60;84.30;;;;;;6184640;23;20012;-60
2022/02/08 19:41:29;;;;;;;350.88;42.67;;;9.70;84.50;;;;;;6209005;23;20028;-59
2022/02/08 19:43:55;;;;;;;351.35;42.38;;;9.70;84.40;;;;;;6181690;23;20750;-59
2022/02/08 19:46:20;;;;;;;356.67;47.67;;;9.70;84.50;;;;;;6182165;23;20015;-62
2022/02/08 19:48:46;;;;;;;363.50;49.15;;;9.70;84.80;;;;;;6210446;23;20510;-61
2022/02/08 19:51:11;;;;;;;402.73;51.60;;;9.70;85.00;;;;;;6233619;23;19996;-60
2022/02/08 19:53:37;;;;;;;289.10;43.30;;;9.70;85.00;;;;;;6234911;23;20027;-60
2022/02/08 19:56:20;;;;;;;376.38;49.42;;;9.70;85.10;;;;;;6183829;23;20954;-60
2022/02/08 19:58:49;;;;;;;339.52;50.75;;;9.70;85.00;;;;;;6237997;23;20102;-59
2022/02/08 20:01:21;;;;;;;388.80;49.40;;;9.70;85.30;;;;;;6209243;23;20010;-63
2022/02/08 20:03:58;;;;;;;377.90;48.28;;;9.70;85.40;;;;;;6208378;23;19992;-59
2022/02/08 20:06:24;;;;;;;331.83;46.90;;;9.60;85.80;;;;;;6210465;23;20030;-59
2022/02/08 20:08:49;;;;;;;370.08;48.97;;;9.60;86.60;;;;;;6208582;23;20004;-59
2022/02/08 20:11:15;;;;;;;361.45;47.38;;;9.70;86.20;;;;;;6206756;23;20012;-60